createdAt,value
2018-08-24T00:03:58.454Z,61.22
2018-08-24T00:10:03.121Z,62.22
2018-08-24T00:16:07.718Z,62.95
2018-08-24T00:22:12.326Z,62.33
2018-08-24T00:28:16.921Z,63.07
2018-08-24T00:34:21.553Z,63.21
2018-08-24T00:40:26.165Z,63.65
2018-08-24T00:46:30.754Z,64.44
2018-08-24T00:52:35.361Z,64.00
2018-08-24T00:58:40.342Z,64.77
2018-08-24T01:04:44.937Z,64.61
2018-08-24T01:10:49.533Z,65.07
2018-08-24T01:16:59.133Z,64.84
2018-08-24T01:23:03.708Z,64.91
2018-08-24T01:29:08.340Z,65.14
2018-08-24T01:35:12.950Z,66.11
2018-08-24T01:41:17.599Z,65.94
2018-08-24T01:47:22.176Z,67.99
2018-08-24T01:53:26.762Z,73.47
2018-08-24T01:59:31.392Z,76.88
2018-08-24T02:05:35.991Z,78.95
2018-08-24T02:11:40.663Z,79.95
2018-08-24T02:17:50.197Z,79.42
2018-08-24T02:23:54.802Z,80.66
2018-08-24T02:29:59.416Z,82.35
2018-08-24T02:36:04.001Z,82.50
2018-08-24T02:42:08.590Z,82.57
2018-08-24T02:48:13.192Z,81.13
2018-08-24T02:54:17.779Z,82.62
2018-08-24T03:00:22.402Z,83.19
2018-08-24T03:06:26.986Z,83.25
2018-08-24T03:12:31.601Z,83.92
2018-08-24T03:18:36.171Z,83.50
2018-08-24T03:24:40.738Z,83.66
2018-08-24T03:30:45.325Z,84.24
2018-08-24T03:36:49.974Z,83.23
2018-08-24T03:42:54.564Z,84.39
2018-08-24T03:48:59.172Z,83.59
2018-08-24T03:55:03.771Z,84.09
2018-08-24T04:01:08.366Z,83.87
2018-08-24T04:07:12.954Z,85.35
2018-08-24T04:13:17.538Z,84.09
2018-08-24T04:19:28.449Z,84.34
2018-08-24T04:25:33.055Z,84.89
2018-08-24T04:31:37.683Z,85.58
2018-08-24T04:37:42.290Z,84.95
2018-08-24T04:43:46.993Z,85.33
2018-08-24T04:49:51.906Z,85.49
2018-08-24T04:55:56.493Z,84.71
2018-08-24T05:02:01.073Z,84.16
2018-08-24T05:08:05.781Z,83.69
2018-08-24T05:14:11.111Z,81.93
2018-08-24T05:20:15.708Z,80.85
2018-08-24T05:26:20.280Z,80.96
2018-08-24T05:32:24.855Z,81.44
2018-08-24T05:38:29.474Z,81.16
2018-08-24T05:44:34.060Z,80.10
2018-08-24T05:50:38.629Z,80.08
2018-08-24T05:56:43.207Z,80.42
2018-08-24T06:02:48.093Z,81.06
2018-08-24T06:09:26.194Z,81.05
2018-08-24T06:15:30.791Z,83.19
2018-08-24T06:21:35.357Z,85.89
2018-08-24T06:27:39.922Z,86.59
2018-08-24T06:33:44.526Z,87.31
2018-08-24T06:39:49.161Z,86.34
2018-08-24T06:45:53.722Z,86.42
2018-08-24T06:51:58.294Z,83.76
2018-08-24T06:58:02.854Z,83.91
2018-08-24T07:04:07.391Z,83.81
2018-08-24T07:10:11.967Z,80.56
2018-08-24T07:16:16.654Z,79.52
2018-08-24T07:22:21.206Z,77.42
2018-08-24T07:28:25.828Z,75.21
2018-08-24T07:34:30.402Z,75.28
2018-08-24T07:40:35.337Z,74.47
2018-08-24T07:46:40.282Z,73.60
2018-08-24T07:52:44.829Z,75.12
2018-08-24T07:58:49.404Z,74.91
2018-08-24T08:04:54.335Z,74.74
2018-08-24T08:10:58.922Z,74.90
2018-08-24T08:17:03.824Z,74.02
2018-08-24T08:23:08.442Z,74.02
2018-08-24T08:29:17.084Z,70.21
2018-08-24T08:35:21.681Z,70.38
2018-08-24T08:41:27.101Z,68.45
2018-08-24T08:47:31.752Z,65.94
2018-08-24T08:53:36.367Z,67.54
2018-08-24T08:59:40.960Z,66.93
2018-08-24T09:05:45.562Z,66.82
2018-08-24T09:11:50.166Z,67.38
2018-08-24T09:18:00.026Z,66.57
2018-08-24T09:25:08.548Z,66.62
2018-08-24T09:31:18.239Z,66.58
2018-08-24T09:37:28.137Z,67.17
2018-08-24T09:43:37.862Z,66.67
2018-08-24T09:49:42.554Z,66.23
2018-08-24T09:55:47.159Z,64.87
2018-08-24T10:01:56.964Z,65.04
2018-08-24T10:08:06.872Z,63.81
2018-08-24T10:14:11.897Z,63.19
2018-08-24T10:20:16.482Z,63.33
2018-08-24T10:26:21.124Z,62.46
2018-08-24T10:32:25.708Z,60.92
2018-08-24T10:38:30.447Z,60.31
2018-08-24T10:44:35.096Z,57.75
2018-08-24T10:50:39.747Z,54.90
2018-08-24T10:56:44.354Z,54.48
2018-08-24T11:02:48.943Z,51.94
2018-08-24T11:08:53.571Z,51.01
2018-08-24T11:14:58.295Z,51.59
2018-08-24T11:21:02.911Z,51.29
2018-08-24T11:27:07.535Z,54.62
2018-08-24T11:33:12.199Z,57.12
2018-08-24T11:39:16.790Z,58.71
2018-08-24T11:45:21.425Z,56.71
2018-08-24T11:51:25.989Z,50.58
2018-08-24T11:57:30.605Z,50.76
2018-08-24T12:03:35.177Z,50.58
2018-08-24T12:09:39.779Z,46.96
2018-08-24T12:15:44.366Z,47.08
2018-08-24T12:21:48.937Z,47.08
2018-08-24T12:27:53.548Z,44.85
2018-08-24T12:33:58.191Z,41.12
2018-08-24T12:40:02.789Z,41.52
2018-08-24T12:46:08.186Z,41.45
2018-08-24T12:52:12.917Z,37.99
2018-08-24T12:58:17.409Z,41.13
2018-08-24T13:04:22.010Z,39.46
2018-08-24T13:10:26.620Z,39.45
2018-08-24T13:16:31.265Z,37.98
2018-08-24T13:22:35.873Z,38.85
2018-08-24T13:28:40.472Z,36.51
2018-08-24T13:34:45.034Z,39.06
2018-08-24T13:40:49.632Z,42.19
2018-08-24T13:46:54.276Z,41.25
2018-08-24T13:52:58.865Z,40.52
2018-08-24T13:59:03.506Z,40.53
2018-08-24T14:05:08.099Z,40.86
2018-08-24T14:11:12.695Z,41.11
2018-08-24T14:17:17.275Z,37.95
2018-08-24T14:23:21.930Z,39.79
2018-08-24T14:29:26.521Z,39.85
2018-08-24T14:35:31.341Z,38.35
2018-08-24T14:41:35.952Z,39.40
2018-08-24T14:47:40.607Z,40.13
2018-08-24T14:53:45.209Z,36.82
2018-08-24T14:59:49.833Z,35.73
2018-08-24T15:05:57.700Z,37.75
2018-08-24T15:12:02.321Z,38.11
2018-08-24T15:18:06.993Z,38.99
2018-08-24T15:24:11.607Z,37.78
2018-08-24T15:30:16.310Z,33.86
2018-08-24T15:36:20.971Z,33.98
2018-08-24T15:42:25.866Z,32.84
2018-08-24T15:48:30.525Z,31.49
2018-08-24T15:54:35.269Z,31.14
2018-08-24T16:00:39.913Z,31.20
2018-08-24T16:06:44.550Z,33.14
2018-08-24T16:12:49.527Z,33.86
2018-08-24T16:18:54.870Z,33.50
2018-08-24T16:24:59.916Z,32.85
2018-08-24T16:31:04.935Z,31.83
2018-08-24T16:37:10.018Z,34.15
2018-08-24T16:43:15.608Z,34.17
2018-08-24T16:49:20.605Z,32.80
2018-08-24T16:55:25.589Z,33.83
2018-08-24T17:01:30.621Z,34.46
2018-08-24T17:07:35.637Z,35.23
2018-08-24T17:13:40.696Z,36.52
2018-08-24T17:19:46.508Z,37.50
2018-08-24T17:25:51.517Z,38.38
2018-08-24T17:31:56.247Z,38.63
2018-08-24T17:38:01.507Z,38.74
2018-08-24T17:44:06.423Z,39.21
2018-08-24T17:50:12.032Z,39.22
2018-08-24T17:56:17.006Z,38.33
2018-08-24T18:02:22.044Z,38.27
2018-08-24T18:08:27.087Z,38.98
2018-08-24T18:14:32.196Z,39.71
2018-08-24T18:20:37.237Z,39.50
2018-08-24T18:26:42.165Z,39.67
2018-08-24T18:32:47.174Z,40.23
2018-08-24T18:38:52.144Z,39.78
2018-08-24T18:44:57.109Z,39.88
2018-08-24T18:51:02.095Z,40.76
2018-08-24T18:57:07.086Z,41.57
2018-08-24T19:03:11.850Z,41.03
2018-08-24T19:09:16.438Z,42.25
2018-08-24T19:15:21.109Z,42.53
2018-08-24T19:21:30.890Z,43.09
2018-08-24T19:27:40.565Z,43.12
2018-08-24T19:33:45.249Z,43.62
2018-08-24T19:39:55.078Z,43.00
2018-08-24T19:45:59.742Z,43.71
2018-08-24T19:52:04.381Z,43.65
2018-08-24T19:58:14.296Z,44.81
2018-08-24T20:04:18.979Z,44.20
2018-08-24T20:10:23.620Z,45.62
2018-08-24T20:16:33.374Z,44.97
2018-08-24T20:22:38.059Z,45.98
2018-08-24T20:28:42.734Z,46.26
2018-08-24T20:34:48.687Z,46.35
2018-08-24T20:40:53.548Z,46.59
2018-08-24T20:46:59.079Z,46.98
2018-08-24T20:53:04.041Z,47.28
2018-08-24T20:59:08.706Z,47.48
2018-08-24T21:05:13.357Z,47.46
2018-08-24T21:11:18.079Z,47.26
2018-08-24T21:17:22.699Z,47.10
2018-08-24T21:23:27.314Z,48.15
2018-08-24T21:29:31.953Z,49.09
2018-08-24T21:35:36.579Z,48.17
2018-08-24T21:41:41.837Z,49.40
2018-08-24T21:47:46.635Z,49.37
2018-08-24T21:53:51.377Z,50.50
2018-08-24T21:59:56.032Z,51.38
2018-08-24T22:06:00.669Z,51.38
2018-08-24T22:12:05.340Z,53.06
2018-08-24T22:18:09.996Z,52.39
2018-08-24T22:24:14.589Z,53.74
2018-08-24T22:30:19.325Z,53.91
2018-08-24T22:36:23.994Z,54.09
2018-08-24T22:42:28.675Z,53.42
2018-08-24T22:48:33.808Z,55.23
2018-08-24T22:54:38.398Z,55.63
2018-08-24T23:00:43.212Z,56.43
2018-08-24T23:06:47.903Z,56.29
2018-08-24T23:12:52.518Z,57.02
2018-08-24T23:18:57.179Z,56.07
2018-08-24T23:25:01.794Z,57.38
2018-08-24T23:31:06.894Z,57.54
2018-08-24T23:37:11.485Z,57.07
2018-08-24T23:43:16.144Z,57.78
2018-08-24T23:49:20.798Z,57.73
2018-08-24T23:55:25.429Z,58.56
